sensor_id;sensor_type;location;lat;lon;timestamp;P1;durP1;ratioP1;P2;durP2;ratioP2
3819;SDS011;1925;51.356;9.530;2023-03-12T00:01:18;7.63;;;4.90;;
3819;SDS011;1925;51.356;9.530;2023-03-12T00:03:44;7.28;;;5.03;;
3819;SDS011;1925;51.356;9.530;2023-03-12T00:06:10;7.70;;;5.03;;
3819;SDS011;1925;51.356;9.530;2023-03-12T00:08:37;6.53;;;4.72;;
3819;SDS011;1925;51.356;9.530;2023-03-12T00:11:06;7.20;;;4.93;;
3819;SDS011;1925;51.356;9.530;2023-03-12T00:13:33;7.15;;;4.30;;
3819;SDS011;1925;51.356;9.530;2023-03-12T00:16:06;9.45;;;4.60;;
3819;SDS011;1925;51.356;9.530;2023-03-12T00:18:33;6.88;;;4.38;;
3819;SDS011;1925;51.356;9.530;2023-03-12T00:20:58;7.10;;;3.90;;
3819;SDS011;1925;51.356;9.530;2023-03-12T00:23:24;5.75;;;4.55;;
3819;SDS011;1925;51.356;9.530;2023-03-12T00:25:50;7.00;;;3.67;;
3819;SDS011;1925;51.356;9.530;2023-03-12T00:28:16;6.40;;;4.30;;
3819;SDS011;1925;51.356;9.530;2023-03-12T00:30:42;4.97;;;4.07;;
3819;SDS011;1925;51.356;9.530;2023-03-12T00:33:09;9.00;;;4.20;;
3819;SDS011;1925;51.356;9.530;2023-03-12T00:35:38;8.52;;;3.95;;
3819;SDS011;1925;51.356;9.530;2023-03-12T00:38:04;5.45;;;3.53;;
3819;SDS011;1925;51.356;9.530;2023-03-12T00:40:30;10.40;;;4.50;;
3819;SDS011;1925;51.356;9.530;2023-03-12T00:42:56;7.47;;;4.10;;
3819;SDS011;1925;51.356;9.530;2023-03-12T00:45:21;8.20;;;4.20;;
3819;SDS011;1925;51.356;9.530;2023-03-12T00:47:47;5.97;;;3.23;;
3819;SDS011;1925;51.356;9.530;2023-03-12T00:50:13;7.67;;;3.53;;
3819;SDS011;1925;51.356;9.530;2023-03-12T00:52:39;5.40;;;3.38;;
3819;SDS011;1925;51.356;9.530;2023-03-12T00:55:05;3.97;;;3.27;;
3819;SDS011;1925;51.356;9.530;2023-03-12T00:57:31;8.20;;;4.30;;
3819;SDS011;1925;51.356;9.530;2023-03-12T00:59:57;5.40;;;3.17;;
3819;SDS011;1925;51.356;9.530;2023-03-12T01:02:23;4.47;;;3.10;;
3819;SDS011;1925;51.356;9.530;2023-03-12T01:04:49;3.90;;;3.00;;
3819;SDS011;1925;51.356;9.530;2023-03-12T01:07:15;4.57;;;3.07;;
3819;SDS011;1925;51.356;9.530;2023-03-12T01:09:41;4.67;;;3.43;;
3819;SDS011;1925;51.356;9.530;2023-03-12T01:12:07;4.33;;;3.13;;
3819;SDS011;1925;51.356;9.530;2023-03-12T01:14:33;4.22;;;2.90;;
3819;SDS011;1925;51.356;9.530;2023-03-12T01:16:59;3.40;;;2.60;;
3819;SDS011;1925;51.356;9.530;2023-03-12T01:19:25;5.60;;;3.10;;
3819;SDS011;1925;51.356;9.530;2023-03-12T01:21:51;8.95;;;3.60;;
3819;SDS011;1925;51.356;9.530;2023-03-12T01:24:17;3.13;;;2.40;;
3819;SDS011;1925;51.356;9.530;2023-03-12T01:26:43;4.30;;;2.95;;
3819;SDS011;1925;51.356;9.530;2023-03-12T01:29:09;8.00;;;3.23;;
3819;SDS011;1925;51.356;9.530;2023-03-12T01:31:35;3.20;;;2.30;;
3819;SDS011;1925;51.356;9.530;2023-03-12T01:34:01;3.72;;;2.72;;
3819;SDS011;1925;51.356;9.530;2023-03-12T01:36:27;6.73;;;2.67;;
3819;SDS011;1925;51.356;9.530;2023-03-12T01:38:55;6.97;;;3.05;;
3819;SDS011;1925;51.356;9.530;2023-03-12T01:41:22;4.47;;;2.60;;
3819;SDS011;1925;51.356;9.530;2023-03-12T01:43:48;3.80;;;2.38;;
3819;SDS011;1925;51.356;9.530;2023-03-12T01:48:42;5.10;;;3.17;;
3819;SDS011;1925;51.356;9.530;2023-03-12T01:51:09;5.60;;;2.60;;
3819;SDS011;1925;51.356;9.530;2023-03-12T01:53:36;5.07;;;3.00;;
3819;SDS011;1925;51.356;9.530;2023-03-12T01:56:02;4.07;;;3.40;;
3819;SDS011;1925;51.356;9.530;2023-03-12T01:58:29;10.10;;;5.15;;
3819;SDS011;1925;51.356;9.530;2023-03-12T02:00:57;8.98;;;5.32;;
3819;SDS011;1925;51.356;9.530;2023-03-12T02:03:24;4.70;;;3.42;;
3819;SDS011;1925;51.356;9.530;2023-03-12T02:05:51;4.40;;;3.08;;
3819;SDS011;1925;51.356;9.530;2023-03-12T02:08:18;4.75;;;2.63;;
3819;SDS011;1925;51.356;9.530;2023-03-12T02:10:44;5.63;;;2.90;;
3819;SDS011;1925;51.356;9.530;2023-03-12T02:13:11;3.38;;;2.25;;
3819;SDS011;1925;51.356;9.530;2023-03-12T02:15:37;5.50;;;3.03;;
3819;SDS011;1925;51.356;9.530;2023-03-12T02:18:04;4.47;;;2.53;;
3819;SDS011;1925;51.356;9.530;2023-03-12T02:21:18;4.10;;;2.33;;
3819;SDS011;1925;51.356;9.530;2023-03-12T02:23:28;7.75;;;3.72;;
3819;SDS011;1925;51.356;9.530;2023-03-12T02:25:55;3.90;;;2.78;;
3819;SDS011;1925;51.356;9.530;2023-03-12T02:28:22;3.05;;;2.40;;
3819;SDS011;1925;51.356;9.530;2023-03-12T02:30:50;4.50;;;2.90;;
3819;SDS011;1925;51.356;9.530;2023-03-12T02:33:17;7.82;;;3.20;;
3819;SDS011;1925;51.356;9.530;2023-03-12T02:35:44;4.03;;;3.25;;
3819;SDS011;1925;51.356;9.530;2023-03-12T02:40:57;3.50;;;2.70;;
3819;SDS011;1925;51.356;9.530;2023-03-12T02:43:23;4.97;;;2.67;;
3819;SDS011;1925;51.356;9.530;2023-03-12T02:45:49;6.13;;;2.78;;
3819;SDS011;1925;51.356;9.530;2023-03-12T02:48:15;4.28;;;2.83;;
3819;SDS011;1925;51.356;9.530;2023-03-12T02:50:41;5.65;;;2.72;;
3819;SDS011;1925;51.356;9.530;2023-03-12T02:53:07;3.93;;;2.73;;
3819;SDS011;1925;51.356;9.530;2023-03-12T02:55:33;4.63;;;3.30;;
3819;SDS011;1925;51.356;9.530;2023-03-12T02:57:59;5.63;;;2.63;;
3819;SDS011;1925;51.356;9.530;2023-03-12T03:00:25;4.97;;;2.60;;
3819;SDS011;1925;51.356;9.530;2023-03-12T03:02:51;5.20;;;3.27;;
3819;SDS011;1925;51.356;9.530;2023-03-12T03:05:17;4.00;;;3.20;;
3819;SDS011;1925;51.356;9.530;2023-03-12T03:07:44;3.10;;;2.58;;
3819;SDS011;1925;51.356;9.530;2023-03-12T03:10:10;3.00;;;2.60;;
3819;SDS011;1925;51.356;9.530;2023-03-12T03:12:36;5.07;;;3.00;;
3819;SDS011;1925;51.356;9.530;2023-03-12T03:15:02;4.43;;;3.10;;
3819;SDS011;1925;51.356;9.530;2023-03-12T03:17:28;4.00;;;2.70;;
3819;SDS011;1925;51.356;9.530;2023-03-12T03:19:54;3.42;;;2.45;;
3819;SDS011;1925;51.356;9.530;2023-03-12T03:22:20;3.77;;;2.60;;
3819;SDS011;1925;51.356;9.530;2023-03-12T03:24:46;5.20;;;2.80;;
3819;SDS011;1925;51.356;9.530;2023-03-12T03:27:13;3.03;;;2.38;;
3819;SDS011;1925;51.356;9.530;2023-03-12T03:29:39;4.40;;;3.30;;
3819;SDS011;1925;51.356;9.530;2023-03-12T03:32:05;4.20;;;2.30;;
3819;SDS011;1925;51.356;9.530;2023-03-12T03:34:31;6.05;;;3.28;;
3819;SDS011;1925;51.356;9.530;2023-03-12T03:36:57;6.20;;;3.50;;
3819;SDS011;1925;51.356;9.530;2023-03-12T03:39:23;4.83;;;3.50;;
3819;SDS011;1925;51.356;9.530;2023-03-12T03:41:49;3.45;;;3.03;;
3819;SDS011;1925;51.356;9.530;2023-03-12T03:44:16;5.93;;;2.90;;
3819;SDS011;1925;51.356;9.530;2023-03-12T03:46:42;8.60;;;2.95;;
3819;SDS011;1925;51.356;9.530;2023-03-12T03:49:08;4.77;;;2.90;;
3819;SDS011;1925;51.356;9.530;2023-03-12T03:51:34;6.03;;;3.30;;
3819;SDS011;1925;51.356;9.530;2023-03-12T03:53:59;7.87;;;3.57;;
3819;SDS011;1925;51.356;9.530;2023-03-12T03:56:25;9.80;;;2.87;;
3819;SDS011;1925;51.356;9.530;2023-03-12T03:58:51;4.97;;;2.60;;
3819;SDS011;1925;51.356;9.530;2023-03-12T04:01:17;4.73;;;3.13;;
3819;SDS011;1925;51.356;9.530;2023-03-12T04:03:43;6.00;;;3.22;;
3819;SDS011;1925;51.356;9.530;2023-03-12T04:06:10;4.43;;;2.97;;
3819;SDS011;1925;51.356;9.530;2023-03-12T04:08:36;5.47;;;2.75;;
3819;SDS011;1925;51.356;9.530;2023-03-12T04:11:09;4.68;;;2.30;;
3819;SDS011;1925;51.356;9.530;2023-03-12T04:13:35;2.72;;;2.30;;
3819;SDS011;1925;51.356;9.530;2023-03-12T04:16:01;3.47;;;2.55;;
3819;SDS011;1925;51.356;9.530;2023-03-12T04:18:28;5.25;;;3.10;;
3819;SDS011;1925;51.356;9.530;2023-03-12T04:20:54;5.13;;;2.87;;
3819;SDS011;1925;51.356;9.530;2023-03-12T04:23:20;4.20;;;2.60;;
3819;SDS011;1925;51.356;9.530;2023-03-12T04:25:45;4.60;;;2.20;;
3819;SDS011;1925;51.356;9.530;2023-03-12T04:28:11;3.90;;;2.60;;
3819;SDS011;1925;51.356;9.530;2023-03-12T04:30:37;5.00;;;2.70;;
3819;SDS011;1925;51.356;9.530;2023-03-12T04:33:04;3.80;;;2.50;;
3819;SDS011;1925;51.356;9.530;2023-03-12T04:35:30;4.45;;;2.05;;
3819;SDS011;1925;51.356;9.530;2023-03-12T04:37:56;3.25;;;2.22;;
3819;SDS011;1925;51.356;9.530;2023-03-12T04:40:22;4.05;;;2.53;;
3819;SDS011;1925;51.356;9.530;2023-03-12T04:42:48;6.63;;;2.60;;
3819;SDS011;1925;51.356;9.530;2023-03-12T04:45:14;4.13;;;2.07;;
3819;SDS011;1925;51.356;9.530;2023-03-12T04:47:40;4.77;;;2.83;;
3819;SDS011;1925;51.356;9.530;2023-03-12T04:50:06;3.77;;;3.10;;
3819;SDS011;1925;51.356;9.530;2023-03-12T04:52:32;2.50;;;2.30;;
3819;SDS011;1925;51.356;9.530;2023-03-12T04:54:58;4.80;;;2.70;;
3819;SDS011;1925;51.356;9.530;2023-03-12T04:57:24;4.05;;;2.70;;
3819;SDS011;1925;51.356;9.530;2023-03-12T04:59:50;3.80;;;2.28;;
3819;SDS011;1925;51.356;9.530;2023-03-12T05:02:16;4.78;;;2.75;;
3819;SDS011;1925;51.356;9.530;2023-03-12T05:04:43;3.85;;;2.50;;
3819;SDS011;1925;51.356;9.530;2023-03-12T05:07:09;6.93;;;2.70;;
3819;SDS011;1925;51.356;9.530;2023-03-12T05:09:35;4.00;;;2.42;;
3819;SDS011;1925;51.356;9.530;2023-03-12T05:12:01;4.28;;;2.53;;
3819;SDS011;1925;51.356;9.530;2023-03-12T05:14:27;4.17;;;2.80;;
3819;SDS011;1925;51.356;9.530;2023-03-12T05:16:53;6.00;;;2.77;;
3819;SDS011;1925;51.356;9.530;2023-03-12T05:19:19;3.50;;;2.13;;
3819;SDS011;1925;51.356;9.530;2023-03-12T05:21:45;4.83;;;2.67;;
3819;SDS011;1925;51.356;9.530;2023-03-12T05:24:11;5.90;;;3.37;;
3819;SDS011;1925;51.356;9.530;2023-03-12T05:26:37;3.00;;;2.70;;
3819;SDS011;1925;51.356;9.530;2023-03-12T05:29:03;3.73;;;2.23;;
3819;SDS011;1925;51.356;9.530;2023-03-12T05:31:30;6.45;;;3.35;;
3819;SDS011;1925;51.356;9.530;2023-03-12T05:33:58;4.18;;;2.70;;
3819;SDS011;1925;51.356;9.530;2023-03-12T05:36:24;5.40;;;2.80;;
3819;SDS011;1925;51.356;9.530;2023-03-12T05:38:50;6.43;;;2.90;;
3819;SDS011;1925;51.356;9.530;2023-03-12T05:41:24;4.03;;;2.77;;
3819;SDS011;1925;51.356;9.530;2023-03-12T05:43:53;4.28;;;2.20;;
3819;SDS011;1925;51.356;9.530;2023-03-12T05:46:20;5.18;;;2.60;;
3819;SDS011;1925;51.356;9.530;2023-03-12T05:48:46;4.75;;;3.00;;
3819;SDS011;1925;51.356;9.530;2023-03-12T05:51:12;7.97;;;3.03;;
3819;SDS011;1925;51.356;9.530;2023-03-12T05:53:39;2.65;;;2.45;;
3819;SDS011;1925;51.356;9.530;2023-03-12T05:56:05;5.70;;;2.73;;
3819;SDS011;1925;51.356;9.530;2023-03-12T05:58:32;5.18;;;3.08;;
3819;SDS011;1925;51.356;9.530;2023-03-12T06:00:59;2.67;;;1.80;;
3819;SDS011;1925;51.356;9.530;2023-03-12T06:03:25;3.40;;;1.90;;
3819;SDS011;1925;51.356;9.530;2023-03-12T06:05:51;4.80;;;2.97;;
3819;SDS011;1925;51.356;9.530;2023-03-12T06:08:19;3.00;;;1.90;;
3819;SDS011;1925;51.356;9.530;2023-03-12T06:10:45;3.22;;;2.22;;
3819;SDS011;1925;51.356;9.530;2023-03-12T06:13:11;4.47;;;2.10;;
3819;SDS011;1925;51.356;9.530;2023-03-12T06:15:37;5.13;;;2.13;;
3819;SDS011;1925;51.356;9.530;2023-03-12T06:18:03;4.63;;;2.60;;
3819;SDS011;1925;51.356;9.530;2023-03-12T06:20:29;3.58;;;2.40;;
3819;SDS011;1925;51.356;9.530;2023-03-12T06:22:55;4.43;;;2.57;;
3819;SDS011;1925;51.356;9.530;2023-03-12T06:25:21;4.40;;;2.87;;
3819;SDS011;1925;51.356;9.530;2023-03-12T06:27:47;3.53;;;2.43;;
3819;SDS011;1925;51.356;9.530;2023-03-12T06:30:13;3.20;;;2.40;;
3819;SDS011;1925;51.356;9.530;2023-03-12T06:32:39;5.15;;;2.38;;
3819;SDS011;1925;51.356;9.530;2023-03-12T06:35:05;2.10;;;1.90;;
3819;SDS011;1925;51.356;9.530;2023-03-12T06:37:31;5.78;;;2.50;;
3819;SDS011;1925;51.356;9.530;2023-03-12T06:39:57;3.60;;;2.60;;
3819;SDS011;1925;51.356;9.530;2023-03-12T06:42:23;4.07;;;3.40;;
3819;SDS011;1925;51.356;9.530;2023-03-12T06:44:50;6.22;;;2.78;;
3819;SDS011;1925;51.356;9.530;2023-03-12T06:47:16;6.83;;;2.60;;
3819;SDS011;1925;51.356;9.530;2023-03-12T06:49:42;3.63;;;2.40;;
3819;SDS011;1925;51.356;9.530;2023-03-12T06:52:08;3.43;;;3.00;;
3819;SDS011;1925;51.356;9.530;2023-03-12T06:54:34;6.40;;;2.83;;
3819;SDS011;1925;51.356;9.530;2023-03-12T06:57:00;6.50;;;3.53;;
3819;SDS011;1925;51.356;9.530;2023-03-12T06:59:26;5.00;;;3.23;;
3819;SDS011;1925;51.356;9.530;2023-03-12T07:01:52;5.40;;;3.17;;
3819;SDS011;1925;51.356;9.530;2023-03-12T07:04:18;5.28;;;2.28;;
3819;SDS011;1925;51.356;9.530;2023-03-12T07:06:44;4.70;;;3.27;;
3819;SDS011;1925;51.356;9.530;2023-03-12T07:09:14;4.55;;;2.40;;
3819;SDS011;1925;51.356;9.530;2023-03-12T07:11:41;3.42;;;2.92;;
3819;SDS011;1925;51.356;9.530;2023-03-12T07:14:07;3.57;;;2.30;;
3819;SDS011;1925;51.356;9.530;2023-03-12T07:16:33;8.93;;;4.30;;
3819;SDS011;1925;51.356;9.530;2023-03-12T07:18:59;4.10;;;2.83;;
3819;SDS011;1925;51.356;9.530;2023-03-12T07:21:25;6.55;;;4.05;;
3819;SDS011;1925;51.356;9.530;2023-03-12T07:23:51;4.77;;;2.57;;
3819;SDS011;1925;51.356;9.530;2023-03-12T07:26:17;3.47;;;2.80;;
3819;SDS011;1925;51.356;9.530;2023-03-12T07:28:43;5.57;;;2.58;;
3819;SDS011;1925;51.356;9.530;2023-03-12T07:31:09;6.17;;;3.20;;
3819;SDS011;1925;51.356;9.530;2023-03-12T07:33:35;7.83;;;3.17;;
3819;SDS011;1925;51.356;9.530;2023-03-12T07:36:01;4.70;;;2.92;;
3819;SDS011;1925;51.356;9.530;2023-03-12T07:38:27;8.95;;;3.88;;
3819;SDS011;1925;51.356;9.530;2023-03-12T07:40:54;6.27;;;2.60;;
3819;SDS011;1925;51.356;9.530;2023-03-12T07:43:20;4.85;;;3.50;;
3819;SDS011;1925;51.356;9.530;2023-03-12T07:45:47;4.82;;;3.08;;
3819;SDS011;1925;51.356;9.530;2023-03-12T07:48:13;7.63;;;3.67;;
3819;SDS011;1925;51.356;9.530;2023-03-12T07:50:40;4.10;;;3.70;;
3819;SDS011;1925;51.356;9.530;2023-03-12T07:53:06;7.85;;;3.63;;
3819;SDS011;1925;51.356;9.530;2023-03-12T07:55:32;4.10;;;2.93;;
3819;SDS011;1925;51.356;9.530;2023-03-12T07:57:59;6.25;;;3.28;;
3819;SDS011;1925;51.356;9.530;2023-03-12T08:00:25;12.73;;;3.03;;
3819;SDS011;1925;51.356;9.530;2023-03-12T08:02:52;3.75;;;3.17;;
3819;SDS011;1925;51.356;9.530;2023-03-12T08:05:18;5.15;;;3.42;;
3819;SDS011;1925;51.356;9.530;2023-03-12T08:07:44;8.40;;;3.42;;
3819;SDS011;1925;51.356;9.530;2023-03-12T08:10:10;4.90;;;3.27;;
3819;SDS011;1925;51.356;9.530;2023-03-12T08:12:37;5.85;;;2.88;;
3819;SDS011;1925;51.356;9.530;2023-03-12T08:15:03;5.13;;;2.87;;
3819;SDS011;1925;51.356;9.530;2023-03-12T08:17:30;4.40;;;2.78;;
3819;SDS011;1925;51.356;9.530;2023-03-12T08:19:56;3.95;;;2.58;;
3819;SDS011;1925;51.356;9.530;2023-03-12T08:22:22;3.70;;;2.65;;
3819;SDS011;1925;51.356;9.530;2023-03-12T08:24:48;4.17;;;2.93;;
3819;SDS011;1925;51.356;9.530;2023-03-12T08:27:13;4.33;;;2.60;;
3819;SDS011;1925;51.356;9.530;2023-03-12T08:29:40;7.00;;;3.53;;
3819;SDS011;1925;51.356;9.530;2023-03-12T08:32:06;4.22;;;3.33;;
3819;SDS011;1925;51.356;9.530;2023-03-12T08:34:32;4.00;;;3.13;;
3819;SDS011;1925;51.356;9.530;2023-03-12T08:36:58;10.00;;;2.85;;
3819;SDS011;1925;51.356;9.530;2023-03-12T08:39:24;6.63;;;2.87;;
3819;SDS011;1925;51.356;9.530;2023-03-12T08:41:50;4.37;;;2.93;;
3819;SDS011;1925;51.356;9.530;2023-03-12T08:44:19;6.88;;;3.08;;
3819;SDS011;1925;51.356;9.530;2023-03-12T08:46:45;4.15;;;2.92;;
3819;SDS011;1925;51.356;9.530;2023-03-12T08:49:11;4.95;;;2.65;;
3819;SDS011;1925;51.356;9.530;2023-03-12T08:51:37;6.03;;;2.80;;
3819;SDS011;1925;51.356;9.530;2023-03-12T08:54:03;3.53;;;2.70;;
3819;SDS011;1925;51.356;9.530;2023-03-12T08:56:30;6.22;;;2.58;;
3819;SDS011;1925;51.356;9.530;2023-03-12T08:58:59;5.72;;;2.50;;
3819;SDS011;1925;51.356;9.530;2023-03-12T09:01:25;3.70;;;2.67;;
3819;SDS011;1925;51.356;9.530;2023-03-12T09:03:51;5.73;;;2.40;;
3819;SDS011;1925;51.356;9.530;2023-03-12T09:06:19;5.18;;;2.35;;
3819;SDS011;1925;51.356;9.530;2023-03-12T09:08:45;3.17;;;1.83;;
3819;SDS011;1925;51.356;9.530;2023-03-12T09:11:13;3.45;;;2.40;;
3819;SDS011;1925;51.356;9.530;2023-03-12T09:13:40;3.08;;;2.40;;
3819;SDS011;1925;51.356;9.530;2023-03-12T09:16:06;2.53;;;2.05;;
3819;SDS011;1925;51.356;9.530;2023-03-12T09:18:32;3.97;;;3.05;;
3819;SDS011;1925;51.356;9.530;2023-03-12T09:20:58;8.18;;;2.50;;
3819;SDS011;1925;51.356;9.530;2023-03-12T09:23:24;4.28;;;2.38;;
3819;SDS011;1925;51.356;9.530;2023-03-12T09:25:50;3.40;;;2.38;;
3819;SDS011;1925;51.356;9.530;2023-03-12T09:28:17;3.35;;;1.85;;
3819;SDS011;1925;51.356;9.530;2023-03-12T09:30:43;4.45;;;2.30;;
3819;SDS011;1925;51.356;9.530;2023-03-12T09:33:09;6.33;;;2.10;;
3819;SDS011;1925;51.356;9.530;2023-03-12T09:35:35;7.17;;;2.50;;
3819;SDS011;1925;51.356;9.530;2023-03-12T09:38:01;4.00;;;2.00;;
3819;SDS011;1925;51.356;9.530;2023-03-12T09:40:28;7.93;;;2.15;;
3819;SDS011;1925;51.356;9.530;2023-03-12T09:42:56;5.60;;;1.90;;
3819;SDS011;1925;51.356;9.530;2023-03-12T09:45:30;3.55;;;1.95;;
3819;SDS011;1925;51.356;9.530;2023-03-12T09:48:00;3.63;;;1.90;;
3819;SDS011;1925;51.356;9.530;2023-03-12T09:50:31;4.40;;;2.20;;
3819;SDS011;1925;51.356;9.530;2023-03-12T09:52:59;5.95;;;2.33;;
3819;SDS011;1925;51.356;9.530;2023-03-12T09:55:27;2.70;;;1.65;;
3819;SDS011;1925;51.356;9.530;2023-03-12T09:57:56;4.63;;;2.70;;
3819;SDS011;1925;51.356;9.530;2023-03-12T10:00:23;2.08;;;1.88;;
3819;SDS011;1925;51.356;9.530;2023-03-12T10:08:07;5.50;;;2.28;;
3819;SDS011;1925;51.356;9.530;2023-03-12T10:19:04;4.78;;;2.30;;
3819;SDS011;1925;51.356;9.530;2023-03-12T10:26:28;3.80;;;3.00;;
3819;SDS011;1925;51.356;9.530;2023-03-12T10:28:58;5.88;;;2.40;;
3819;SDS011;1925;51.356;9.530;2023-03-12T10:31:29;2.63;;;2.15;;
3819;SDS011;1925;51.356;9.530;2023-03-12T10:33:58;3.88;;;3.05;;
3819;SDS011;1925;51.356;9.530;2023-03-12T10:36:35;6.28;;;3.03;;
3819;SDS011;1925;51.356;9.530;2023-03-12T10:39:03;3.58;;;2.53;;
3819;SDS011;1925;51.356;9.530;2023-03-12T10:41:30;2.33;;;2.05;;
3819;SDS011;1925;51.356;9.530;2023-03-12T10:43:57;3.17;;;2.17;;
3819;SDS011;1925;51.356;9.530;2023-03-12T10:46:40;3.05;;;2.28;;
3819;SDS011;1925;51.356;9.530;2023-03-12T10:54:22;8.13;;;4.30;;
3819;SDS011;1925;51.356;9.530;2023-03-12T10:56:49;9.30;;;3.90;;
3819;SDS011;1925;51.356;9.530;2023-03-12T10:59:23;5.35;;;2.70;;
3819;SDS011;1925;51.356;9.530;2023-03-12T11:01:50;2.58;;;2.38;;
3819;SDS011;1925;51.356;9.530;2023-03-12T11:04:18;6.45;;;3.20;;
3819;SDS011;1925;51.356;9.530;2023-03-12T11:07:01;12.75;;;3.55;;
3819;SDS011;1925;51.356;9.530;2023-03-12T11:09:27;4.43;;;2.70;;
3819;SDS011;1925;51.356;9.530;2023-03-12T11:11:53;4.80;;;2.60;;
3819;SDS011;1925;51.356;9.530;2023-03-12T11:14:21;7.20;;;3.50;;
3819;SDS011;1925;51.356;9.530;2023-03-12T11:16:47;6.65;;;3.20;;
3819;SDS011;1925;51.356;9.530;2023-03-12T11:19:18;8.10;;;3.53;;
3819;SDS011;1925;51.356;9.530;2023-03-12T11:21:55;11.07;;;2.55;;
3819;SDS011;1925;51.356;9.530;2023-03-12T11:24:21;5.40;;;3.33;;
3819;SDS011;1925;51.356;9.530;2023-03-12T11:29:29;3.95;;;2.88;;
3819;SDS011;1925;51.356;9.530;2023-03-12T11:32:57;12.25;;;4.10;;
3819;SDS011;1925;51.356;9.530;2023-03-12T11:34:53;5.82;;;2.30;;
3819;SDS011;1925;51.356;9.530;2023-03-12T11:48:05;4.93;;;2.60;;
3819;SDS011;1925;51.356;9.530;2023-03-12T11:53:16;4.25;;;2.65;;
3819;SDS011;1925;51.356;9.530;2023-03-12T12:03:33;7.28;;;4.03;;
3819;SDS011;1925;51.356;9.530;2023-03-12T12:08:46;3.33;;;3.03;;
3819;SDS011;1925;51.356;9.530;2023-03-12T12:14:13;6.97;;;3.13;;
3819;SDS011;1925;51.356;9.530;2023-03-12T12:16:47;3.72;;;3.42;;
3819;SDS011;1925;51.356;9.530;2023-03-12T12:21:51;6.80;;;3.90;;
3819;SDS011;1925;51.356;9.530;2023-03-12T12:24:27;4.25;;;3.38;;
3819;SDS011;1925;51.356;9.530;2023-03-12T12:32:34;5.65;;;3.50;;
3819;SDS011;1925;51.356;9.530;2023-03-12T12:37:40;10.55;;;3.83;;
3819;SDS011;1925;51.356;9.530;2023-03-12T12:40:14;8.30;;;3.92;;
3819;SDS011;1925;51.356;9.530;2023-03-12T12:42:48;9.70;;;4.50;;
3819;SDS011;1925;51.356;9.530;2023-03-12T12:45:16;5.00;;;3.67;;
3819;SDS011;1925;51.356;9.530;2023-03-12T12:47:47;9.38;;;4.53;;
3819;SDS011;1925;51.356;9.530;2023-03-12T12:50:19;9.30;;;8.32;;
3819;SDS011;1925;51.356;9.530;2023-03-12T12:52:48;7.18;;;5.22;;
3819;SDS011;1925;51.356;9.530;2023-03-12T12:55:17;10.35;;;5.45;;
3819;SDS011;1925;51.356;9.530;2023-03-12T12:57:44;7.43;;;4.97;;
3819;SDS011;1925;51.356;9.530;2023-03-12T13:00:24;12.55;;;5.38;;
3819;SDS011;1925;51.356;9.530;2023-03-12T13:02:56;6.15;;;4.35;;
3819;SDS011;1925;51.356;9.530;2023-03-12T13:07:51;7.10;;;6.38;;
3819;SDS011;1925;51.356;9.530;2023-03-12T13:13:20;5.65;;;5.15;;
3819;SDS011;1925;51.356;9.530;2023-03-12T13:15:44;6.43;;;5.82;;
3819;SDS011;1925;51.356;9.530;2023-03-12T13:18:21;7.75;;;5.30;;
3819;SDS011;1925;51.356;9.530;2023-03-12T13:30:54;6.70;;;5.38;;
3819;SDS011;1925;51.356;9.530;2023-03-12T13:33:35;12.20;;;6.03;;
3819;SDS011;1925;51.356;9.530;2023-03-12T13:36:17;6.43;;;5.40;;
3819;SDS011;1925;51.356;9.530;2023-03-12T13:46:58;7.72;;;5.53;;
3819;SDS011;1925;51.356;9.530;2023-03-12T13:49:24;8.65;;;6.60;;
3819;SDS011;1925;51.356;9.530;2023-03-12T13:51:53;7.00;;;5.60;;
3819;SDS011;1925;51.356;9.530;2023-03-12T13:54:20;6.15;;;5.40;;
3819;SDS011;1925;51.356;9.530;2023-03-12T13:56:59;8.82;;;7.22;;
3819;SDS011;1925;51.356;9.530;2023-03-12T13:59:26;7.95;;;6.00;;
3819;SDS011;1925;51.356;9.530;2023-03-12T14:01:54;8.75;;;5.63;;
3819;SDS011;1925;51.356;9.530;2023-03-12T14:04:27;10.27;;;5.97;;
3819;SDS011;1925;51.356;9.530;2023-03-12T14:09:31;8.32;;;5.88;;
3819;SDS011;1925;51.356;9.530;2023-03-12T14:12:05;11.70;;;6.75;;
3819;SDS011;1925;51.356;9.530;2023-03-12T14:14:39;10.82;;;6.82;;
3819;SDS011;1925;51.356;9.530;2023-03-12T14:17:18;11.32;;;6.90;;
3819;SDS011;1925;51.356;9.530;2023-03-12T14:19:45;8.90;;;7.05;;
3819;SDS011;1925;51.356;9.530;2023-03-12T14:22:12;7.22;;;6.13;;
3819;SDS011;1925;51.356;9.530;2023-03-12T14:24:39;7.65;;;6.30;;
3819;SDS011;1925;51.356;9.530;2023-03-12T14:27:13;8.73;;;6.45;;
3819;SDS011;1925;51.356;9.530;2023-03-12T14:29:40;10.07;;;8.27;;
3819;SDS011;1925;51.356;9.530;2023-03-12T14:32:14;7.55;;;6.00;;
3819;SDS011;1925;51.356;9.530;2023-03-12T14:34:44;7.90;;;6.63;;
3819;SDS011;1925;51.356;9.530;2023-03-12T14:37:23;8.13;;;6.90;;
3819;SDS011;1925;51.356;9.530;2023-03-12T14:39:53;7.57;;;6.60;;
3819;SDS011;1925;51.356;9.530;2023-03-12T14:42:26;8.85;;;7.07;;
3819;SDS011;1925;51.356;9.530;2023-03-12T14:44:53;7.75;;;5.45;;
3819;SDS011;1925;51.356;9.530;2023-03-12T14:47:21;7.28;;;6.45;;
3819;SDS011;1925;51.356;9.530;2023-03-12T14:49:47;7.70;;;6.47;;
3819;SDS011;1925;51.356;9.530;2023-03-12T14:52:14;7.90;;;7.00;;
3819;SDS011;1925;51.356;9.530;2023-03-12T14:54:52;7.35;;;6.53;;
3819;SDS011;1925;51.356;9.530;2023-03-12T14:57:19;12.63;;;6.78;;
3819;SDS011;1925;51.356;9.530;2023-03-12T14:59:52;6.63;;;5.57;;
3819;SDS011;1925;51.356;9.530;2023-03-12T15:02:19;6.60;;;5.90;;
3819;SDS011;1925;51.356;9.530;2023-03-12T15:04:45;6.15;;;5.50;;
3819;SDS011;1925;51.356;9.530;2023-03-12T15:07:12;10.23;;;6.85;;
3819;SDS011;1925;51.356;9.530;2023-03-12T15:09:41;7.57;;;6.28;;
3819;SDS011;1925;51.356;9.530;2023-03-12T15:12:16;8.48;;;6.47;;
3819;SDS011;1925;51.356;9.530;2023-03-12T15:14:43;6.85;;;6.13;;
3819;SDS011;1925;51.356;9.530;2023-03-12T15:17:13;9.35;;;6.95;;
3819;SDS011;1925;51.356;9.530;2023-03-12T15:19:40;6.65;;;5.95;;
3819;SDS011;1925;51.356;9.530;2023-03-12T15:22:14;7.97;;;6.65;;
3819;SDS011;1925;51.356;9.530;2023-03-12T15:24:40;8.38;;;7.00;;
3819;SDS011;1925;51.356;9.530;2023-03-12T15:29:53;7.45;;;6.63;;
3819;SDS011;1925;51.356;9.530;2023-03-12T15:32:20;7.38;;;6.55;;
3819;SDS011;1925;51.356;9.530;2023-03-12T15:34:48;8.00;;;6.55;;
3819;SDS011;1925;51.356;9.530;2023-03-12T15:37:48;16.35;;;11.00;;
3819;SDS011;1925;51.356;9.530;2023-03-12T15:40:20;9.73;;;8.18;;
3819;SDS011;1925;51.356;9.530;2023-03-12T15:42:47;12.98;;;9.82;;
3819;SDS011;1925;51.356;9.530;2023-03-12T15:47:42;9.55;;;6.75;;
3819;SDS011;1925;51.356;9.530;2023-03-12T15:50:22;16.27;;;13.82;;
3819;SDS011;1925;51.356;9.530;2023-03-12T15:55:26;10.02;;;7.28;;
3819;SDS011;1925;51.356;9.530;2023-03-12T15:57:53;9.27;;;7.80;;
3819;SDS011;1925;51.356;9.530;2023-03-12T16:00:22;9.50;;;8.32;;
3819;SDS011;1925;51.356;9.530;2023-03-12T16:02:50;8.90;;;6.82;;
3819;SDS011;1925;51.356;9.530;2023-03-12T16:05:17;9.30;;;7.60;;
3819;SDS011;1925;51.356;9.530;2023-03-12T16:07:43;9.40;;;7.25;;
3819;SDS011;1925;51.356;9.530;2023-03-12T16:10:12;9.02;;;8.13;;
3819;SDS011;1925;51.356;9.530;2023-03-12T16:12:39;11.55;;;8.57;;
3819;SDS011;1925;51.356;9.530;2023-03-12T16:15:05;10.20;;;8.05;;
3819;SDS011;1925;51.356;9.530;2023-03-12T16:17:31;12.07;;;9.18;;
3819;SDS011;1925;51.356;9.530;2023-03-12T16:19:57;16.30;;;12.33;;
3819;SDS011;1925;51.356;9.530;2023-03-12T16:22:23;14.03;;;10.73;;
3819;SDS011;1925;51.356;9.530;2023-03-12T16:24:49;12.83;;;9.73;;
3819;SDS011;1925;51.356;9.530;2023-03-12T16:27:15;14.83;;;10.00;;
3819;SDS011;1925;51.356;9.530;2023-03-12T16:29:41;13.70;;;10.60;;
3819;SDS011;1925;51.356;9.530;2023-03-12T16:32:09;12.07;;;10.23;;
3819;SDS011;1925;51.356;9.530;2023-03-12T16:34:35;15.57;;;11.93;;
3819;SDS011;1925;51.356;9.530;2023-03-12T16:37:01;18.53;;;12.53;;
3819;SDS011;1925;51.356;9.530;2023-03-12T16:39:27;15.83;;;11.43;;
3819;SDS011;1925;51.356;9.530;2023-03-12T16:41:57;17.55;;;13.00;;
3819;SDS011;1925;51.356;9.530;2023-03-12T16:44:22;19.35;;;13.15;;
3819;SDS011;1925;51.356;9.530;2023-03-12T16:46:50;15.68;;;11.07;;
3819;SDS011;1925;51.356;9.530;2023-03-12T16:49:16;14.40;;;10.55;;
3819;SDS011;1925;51.356;9.530;2023-03-12T16:51:44;15.73;;;11.02;;
3819;SDS011;1925;51.356;9.530;2023-03-12T16:54:11;15.82;;;11.45;;
3819;SDS011;1925;51.356;9.530;2023-03-12T16:56:37;16.35;;;11.00;;
3819;SDS011;1925;51.356;9.530;2023-03-12T16:59:09;17.00;;;12.70;;